Historyczne dane pomiarowe

Dodano dane terminowe – wersja testowa.

Dane z okresu 1951-2019

Wersja bazy: 1.34 [2019-03-16, lista zmian], aktualizacja planowana na 2019-04-15

Dane meteo z obszaru Polski uzyskane na podstawie danych udostępnionych przez Instytut Meteorologii i Gospodarki Wodnej – Państwowy Instytut Badawczy.

 

Wybierz Datę:    

       

TemperaturaWilgotnośćWiatrCiśnienieOpadyŚniegCzas trwania zjawisk
 Stacja t tx tn tng RH VA  wxwx mslp ppp RRR   cm mm wxwxwxwxwxwxwx
1994-08-14 12.9 18.3 10.2 5.5 78.8- 4.3 9.7---- 0.0------------
1994-08-13 17.2 23.0 15.1 10.1 85.3- 7.3 6.0---- 2.5------------
1994-08-12 18.3 25.6 14.9 8.8 79.0- 4.3 1.0---- 1.8------------
1994-08-11 19.7 25.2 12.8 8.1 65.5- 3.0 1.0---- 0.0------------
1994-08-10 19.2 26.6 12.6 7.2 77.0- 2.7 0.7---- 0.0------------
1994-08-09 18.9 22.2 16.4 10.7 90.8- 7.3 0.3---- 8.6------------
1994-08-08 20.1 25.0 17.0 12.0 77.8- 5.0 0.3---- 0.9------------
1994-08-07 20.9 27.4 17.0 10.5 76.8- 1.7 0.3---- 1.5------------
1994-08-06 26.4 34.4 19.2 11.5 58.5- 2.3 2.7---- 0.0------------
1994-08-05 24.4 32.0 17.6 11.8 69.5- 2.0 0.3---- 0.0------------
1994-08-04 22.5 28.6 17.6 11.1 77.5- 3.3 1.0---- 0.0------------
1994-08-03 23.0 29.5 19.8 14.9 84.8- 2.3 0.7---- 37.9------------
1994-08-02 27.4 35.2 18.0 9.9 60.0- 1.3 1.3---- 0.0------------
1994-08-01 27.6 37.0 19.2 11.5 62.5- 2.3 1.0---- 0.0------------
1994-07-31 28.3 36.8 18.8 10.5 53.3- 1.0 1.0---- 0.0------------
1994-07-30 27.9 36.2 17.0 8.6 57.0- 1.0 0.7---- 0.0------------
1994-07-29 27.4 35.8 16.1 8.6 53.5- 0.7 1.0---- 0.0------------
1994-07-28 26.7 35.0 16.3 8.0 52.5- 0.7 0.7---- 0.0------------
1994-07-27 25.4 34.4 14.7 7.1 54.8- 1.0 0.7---- 0.0------------
1994-07-26 26.0 33.6 15.7 7.6 48.3- 1.0 0.7---- 0.0------------
1994-07-25 24.7 32.8 14.9 6.8 52.3- 1.3 1.0---- 0.0------------
1994-07-24 22.5 31.6 12.2 5.2 59.0- 1.0 0.3---- 0.0------------
1994-07-23 21.9 29.4 13.5 5.2 58.8- 0.7 0.0---- 0.0------------
1994-07-22 20.8 27.4 10.2 3.7 57.0- 1.0 1.7---- 0.0------------
1994-07-21 20.4 29.0 9.0 2.3 56.3- 1.0 1.3---- 0.0------------
1994-07-20 18.5 25.0 9.0 2.2 60.5- 1.0 1.0---- 0.0------------
1994-07-19 17.7 23.4 11.0 5.1 60.8- 1.3 2.7---- 0.0------------
1994-07-18 19.0 23.8 14.3 10.3 70.5- 2.0 2.7---- 0.0------------
1994-07-17 22.1 26.6 17.5 12.8 71.3- 2.7 1.0---- 8.6------------
1994-07-16 23.0 30.0 15.5 8.0 67.0- 0.7 0.7---- 0.0------------
1994-07-15 24.3 32.0 16.3 9.7 66.0- 1.3 0.3---- 0.0------------
1994-07-14 24.8 32.4 15.5 9.7 65.5- 1.7 1.3---- 0.0------------
1994-07-13 25.2 31.2 16.5 9.5 57.0- 1.3 1.0---- 0.0------------
1994-07-12 24.1 30.0 16.3 9.5 63.5- 1.3 1.0---- 0.0------------
1994-07-11 21.6 29.0 13.2 6.9 67.8- 1.7 1.0---- 0.0------------
1994-07-10 18.4 26.5 9.9 4.7 77.0- 3.0 0.7---- 12.1------------
1994-07-09 14.8 17.7 9.8 5.1 87.5- 6.7 2.3---- 0.5------------
1994-07-08 14.8 23.0 13.4 7.6 89.0- 7.7 2.3---- 7.6------------
1994-07-07 19.4 26.8 10.2 4.5 57.0- 1.3 1.0---- 1.5------------
1994-07-06 18.3 25.4 9.3 2.4 61.3- 1.7 0.7---- 0.0------------
1994-07-05 18.1 24.5 10.3 4.3 61.8- 1.3 1.7---- 0.0------------
1994-07-04 20.3 26.6 12.2 5.2 55.8- 0.7 1.7---- 0.0------------
1994-07-03 18.9 26.0 8.8 0.5 53.3- 0.3 0.3---- 0.0------------
1994-07-02 17.3 24.2 7.8 -0.7 65.0- 1.0 0.7---- 0.0------------
1994-07-01 17.3 23.0 7.6 1.4 69.8- 1.0 1.3---- 0.0------------
1994-06-30 20.9 27.6 15.7 14.5 74.5- 4.3 2.3---- 0.0------------
1994-06-29 24.3 31.8 15.5 9.5 68.0- 0.7 1.0---- 3.5------------
1994-06-28 22.0 29.6 12.2 5.5 62.3- 0.7 0.3---- 0.0------------
1994-06-27 22.4 29.4 14.7 8.0 70.3- 1.3 1.0---- 0.0------------
1994-06-26 21.2 30.0 9.9 1.8 63.3- 1.0 1.7---- 0.0------------
1994-06-25 15.5 23.4 4.1 -2.9 64.5- 0.3 0.7---- 0.0------------
1994-06-24 14.1 18.9 7.3 2.8 59.8- 1.7 5.7---- 0.0------------
1994-06-23 14.7 21.1 11.4 6.7 60.0- 2.7 9.3---- 0.0------------
1994-06-22 18.3 24.4 10.8 4.7 69.0- 5.3 5.0---- 0.0------------
1994-06-21 14.6 21.9 6.0 -1.6 73.0- 1.7 1.0---- 0.0------------
1994-06-20 14.9 18.3 11.8 7.6 68.5- 2.7 3.0---- 0.0------------
1994-06-19 13.7 19.1 11.0 8.0 90.8- 8.0 3.3---- 2.7------------
1994-06-18 11.1 17.3 2.2 -2.6 79.5- 4.3 2.3---- 9.6------------
1994-06-17 10.4 14.4 4.9 -2.9 74.3- 3.3 2.7---- 0.0------------
1994-06-16 10.9 14.5 7.6 1.7 80.0- 5.0 4.3---- 0.9------------
328.2 ms

 

Źródłem pochodzenia danych jest Instytut Meteorologii i Gospodarki Wodnej – Państwowy Instytut Badawczy. Dane Instytutu Meteorologii i Gospodarki Wodnej – Państwowego Instytutu Badawczego zostały przetworzone.

Dane źródłowe można odnaleźć na stronie https://dane.imgw.pl